Weather at Bardufoss Airport

Public forecast

Using degrees Celsius for public forecast. Weather courtesy of forecast.io.

Current aviation weather report (METAR) for Bardufoss Airport

Retrieved 2022/05/26 16:50 UTC (33 minutes ago):

ENDU 261650Z 12006KT 060V170 9999 FEW060 19/02 Q1002 NOSIG RMK WIND 1100FT 11009KT WIND 2200FT 13011KT

Aviation forecast (TAF) for Bardufoss Airport

Retrieved 2022/05/26 12:57 UTC (4 hours ago):

TAF ENDU 261100Z 2612/2712 11008KT 9999 FEW050 SCT080